Saturday, January 20, 2018, 8:24 AM EST
Back to Local

KMMU, Morristown Municipal

Location: Morristown, NJ, United States Lat: 40.8
Local Time: 8:24 AM EST (13:24 GMT) Lon: -74.417
Time Zone: US/Eastern Elev: 187 ft

Show me the last for .
Show Decoded

2018-01-20 07:45 METAR KMMU 201245Z 24008KT 10SM BKN250 02/M05 A2987 =
2018-01-20 06:45 METAR KMMU 201145Z 24007KT 10SM SCT250 00/M05 A2988 =
2018-01-20 06:35 METAR KMMU 201135Z AUTO 20003KT 10SM CLR M04/M07 A2987 RMK AO2 =
2018-01-20 06:15 METAR KMMU 201115Z AUTO 00000KT 10SM CLR M03/M07 A2987 RMK AO2 =
2018-01-20 05:55 METAR KMMU 201055Z AUTO 00000KT 10SM CLR M02/M06 A2988 RMK AO2 =
2018-01-20 05:35 METAR KMMU 201035Z AUTO 00000KT 10SM CLR M02/M06 A2988 RMK AO2 =
2018-01-20 05:15 METAR KMMU 201015Z AUTO 20003KT 10SM CLR M01/M06 A2988 RMK AO2 =
2018-01-20 04:55 METAR KMMU 200955Z AUTO 00000KT 10SM CLR M03/M06 A2988 RMK AO2 =
2018-01-20 04:35 METAR KMMU 200935Z AUTO 00000KT 10SM CLR M01/M06 A2988 RMK AO2 =
2018-01-20 04:15 METAR KMMU 200915Z AUTO 21004KT 10SM CLR M00/M06 A2989 RMK AO2 =
2018-01-20 03:55 METAR KMMU 200855Z AUTO 22004KT 10SM CLR M01/M06 A2989 RMK AO2 =
2018-01-20 03:35 METAR KMMU 200835Z AUTO 23006KT 10SM CLR M01/M06 A2989 RMK AO2 =
2018-01-20 03:15 METAR KMMU 200815Z AUTO 22005KT 10SM CLR 00/M06 A2989 RMK AO2 =
2018-01-20 02:35 METAR KMMU 200735Z AUTO 21003KT 10SM CLR M05/M06 A2990 RMK AO2 =
2018-01-20 02:15 METAR KMMU 200715Z AUTO 00000KT 10SM CLR M07/M08 A2991 RMK AO2 =
2018-01-20 01:55 METAR KMMU 200655Z AUTO 00000KT 10SM CLR M07/M08 A2991 RMK AO2 =
2018-01-20 01:35 METAR KMMU 200635Z AUTO 00000KT 10SM CLR M07/M08 A2991 RMK AO2 =
2018-01-20 01:15 METAR KMMU 200615Z AUTO 00000KT 10SM CLR M07/M08 A2991 RMK AO2 =
2018-01-20 00:55 METAR KMMU 200555Z AUTO 00000KT 10SM CLR M07/M08 A2992 RMK AO2 =
2018-01-20 00:35 METAR KMMU 200535Z AUTO 00000KT 10SM CLR M07/M09 A2992 RMK AO2 =
2018-01-20 00:15 METAR KMMU 200515Z AUTO 00000KT 10SM CLR M07/M08 A2993 RMK AO2 =
2018-01-19 23:55 METAR KMMU 200455Z AUTO 00000KT 10SM CLR M07/M08 A2993 RMK AO2 =
2018-01-19 23:35 METAR KMMU 200435Z AUTO 00000KT 10SM CLR M07/M08 A2995 RMK AO2 =
2018-01-19 23:15 METAR KMMU 200415Z AUTO 00000KT 10SM CLR M07/M08 A2996 RMK AO2 =
2018-01-19 22:55 METAR KMMU 200355Z AUTO 00000KT 10SM CLR M06/M08 A2996 RMK AO2 =
2018-01-19 22:35 METAR KMMU 200335Z AUTO 00000KT 10SM CLR M06/M07 A2996 RMK AO2 =
2018-01-19 22:15 METAR KMMU 200315Z AUTO 00000KT 10SM CLR M05/M07 A2997 RMK AO2 =
2018-01-19 21:45 METAR KMMU 200245Z 00000KT 10SM SCT200 M05/M07 A2998 =
2018-01-19 20:45 METAR KMMU 200145Z 00000KT 10SM SCT200 M04/M07 A2999 =
2018-01-19 19:45 METAR KMMU 200045Z 00000KT 10SM SCT200 M03/M07 A2999 =
2018-01-19 18:45 METAR KMMU 192345Z 21004KT 10SM SCT200 M01/M07 A2999 =
2018-01-19 17:45 METAR KMMU 192245Z 22005KT 10SM SCT200 00/M07 A2998 =
2018-01-19 16:50 METAR KMMU 192150Z 21006KT 10SM SCT200 01/M07 A2998 =
2018-01-19 15:50 METAR KMMU 192050Z 21005KT 10SM SCT200 03/M07 A2998 =
2018-01-19 14:45 METAR KMMU 191945Z 26006KT 10SM BKN200 03/M08 A2997 =
2018-01-19 13:45 METAR KMMU 191845Z 27009KT 10SM BKN200 02/M08 A2999 =
2018-01-19 12:45 METAR KMMU 191745Z 26008KT 10SM BKN200 01/M08 A3001 =
2018-01-19 11:50 METAR KMMU 191650Z 24006KT 10SM OVC150 M01/M08 A3005 =
2018-01-19 10:45 METAR KMMU 191545Z 23007KT 10SM OVC150 M02/M08 A3008 =
2018-01-19 09:45 METAR KMMU 191445Z 23006KT 10SM BKN150 BKN250 M03/M09 A3008 =
2018-01-19 08:45 METAR KMMU 191345Z 00000KT 10SM BKN150 BKN250 M06/M08 A3008 =

Support USWX by starting your Amazon purchase here.